Time;durP1;ratioP1;P1;durP2;ratioP2;P2;SDS_P1;SDS_P2;PMS_P1;PMS_P2;Temp;Humidity;BMP_temperature;BMP_pressure;BME280_temperature;BME280_humidity;BME280_pressure;Samples;Min_cycle;Max_cycle;Signal;HPM_P1;HPM_P2
2023/01/21 00:02:13;;;;;;;47.00;24.98;;;;;;;;;;6174339;23;20012;-74
2023/01/21 00:04:39;;;;;;;55.63;28.98;;;;;;;;;;6195980;23;20024;-75
2023/01/21 00:07:05;;;;;;;53.58;27.23;;;;;;;;;;6175710;23;20020;-75
2023/01/21 00:09:32;;;;;;;51.95;26.80;;;;;;;;;;6175319;23;20505;-75
2023/01/21 00:12:01;;;;;;;50.65;26.88;;;;;;;;;;6206814;23;20020;-74
2023/01/21 00:14:27;;;;;;;50.80;26.73;;;;;;;;;;6213088;23;20239;-74
2023/01/21 00:16:54;;;;;;;52.40;27.90;;;;;;;;;;6209826;23;20016;-75
2023/01/21 00:19:20;;;;;;;51.10;23.98;;;;;;;;;;6214029;23;20009;-75
2023/01/21 00:21:47;;;;;;;48.08;25.75;;;;;;;;;;6218562;23;20027;-76
2023/01/21 00:24:13;;;;;;;45.55;24.67;;;;;;;;;;6244355;23;20066;-75
2023/01/21 00:26:39;;;;;;;52.95;27.08;;;;;;;;;;6210973;23;20092;-77
2023/01/21 00:29:05;;;;;;;45.25;25.15;;;;;;;;;;6209324;23;20024;-75
2023/01/21 00:31:31;;;;;;;46.53;23.67;;;;;;;;;;6194217;23;20023;-76
2023/01/21 00:33:57;;;;;;;45.70;23.83;;;;;;;;;;6203328;23;20099;-75
2023/01/21 00:36:28;;;;;;;50.00;24.17;;;;;;;;;;6178382;23;20020;-75
2023/01/21 00:38:55;;;;;;;47.97;25.10;;;;;;;;;;6203494;23;20012;-76
2023/01/21 00:41:23;;;;;;;46.28;24.67;;;;;;;;;;6178092;23;20027;-75
2023/01/21 00:43:50;;;;;;;50.38;25.60;;;;;;;;;;6231323;23;20111;-75
2023/01/21 00:46:16;;;;;;;46.58;24.63;;;;;;;;;;6202427;23;20020;-76
2023/01/21 00:48:42;;;;;;;46.58;23.38;;;;;;;;;;6202803;23;20389;-75
2023/01/21 00:51:08;;;;;;;46.25;25.13;;;;;;;;;;6230912;23;20016;-76
2023/01/21 00:53:37;;;;;;;51.83;25.10;;;;;;;;;;6202050;23;20051;-75
2023/01/21 00:56:04;;;;;;;51.92;25.60;;;;;;;;;;6178301;23;20020;-75
2023/01/21 00:58:31;;;;;;;48.97;24.70;;;;;;;;;;6203247;23;20446;-76
2023/01/21 01:01:04;;;;;;;43.70;22.30;;;;;;;;;;6202567;23;20023;-75
2023/01/21 01:03:31;;;;;;;37.80;20.65;;;;;;;;;;6177369;23;20024;-75
2023/01/21 01:06:08;;;;;;;48.45;22.83;;;;;;;;;;6177696;23;20381;-75
2023/01/21 01:08:34;;;;;;;44.38;22.90;;;;;;;;;;6178294;23;20016;-76
2023/01/21 01:11:00;;;;;;;43.90;21.65;;;;;;;;;;6176693;23;20024;-75
2023/01/21 01:13:27;;;;;;;44.22;22.77;;;;;;;;;;6229436;23;20020;-76
2023/01/21 01:15:56;;;;;;;43.55;22.80;;;;;;;;;;6202763;23;20082;-75
2023/01/21 01:18:26;;;;;;;46.03;23.45;;;;;;;;;;6202475;23;20050;-76
2023/01/21 01:20:52;;;;;;;47.92;25.10;;;;;;;;;;6198146;23;20035;-76
2023/01/21 01:23:18;;;;;;;52.30;25.13;;;;;;;;;;6197267;23;20025;-76
2023/01/21 01:25:53;;;;;;;50.95;24.48;;;;;;;;;;6198116;23;20479;-75
2023/01/21 01:28:19;;;;;;;50.33;24.50;;;;;;;;;;6195465;23;20079;-76
2023/01/21 01:30:45;;;;;;;54.15;25.10;;;;;;;;;;6192323;23;20021;-76
2023/01/21 01:33:11;;;;;;;47.42;24.77;;;;;;;;;;6192030;23;20119;-75
2023/01/21 01:35:37;;;;;;;49.50;25.23;;;;;;;;;;6193634;23;20727;-76
2023/01/21 01:38:06;;;;;;;44.40;22.33;;;;;;;;;;6195054;23;20566;-76
2023/01/21 01:40:33;;;;;;;49.75;25.65;;;;;;;;;;6193808;23;20020;-76
2023/01/21 01:42:59;;;;;;;50.42;22.25;;;;;;;;;;6151679;23;20031;-76
2023/01/21 01:45:25;;;;;;;41.58;22.42;;;;;;;;;;6199885;23;20652;-76
2023/01/21 01:47:57;;;;;;;43.67;22.38;;;;;;;;;;6201659;23;20035;-76
2023/01/21 01:50:26;;;;;;;44.10;22.45;;;;;;;;;;6201183;23;20012;-75
2023/01/21 01:52:52;;;;;;;48.42;23.77;;;;;;;;;;6201291;23;20035;-75
2023/01/21 01:55:18;;;;;;;48.65;24.17;;;;;;;;;;6205036;23;20015;-83
2023/01/21 01:57:46;;;;;;;50.33;25.30;;;;;;;;;;6217483;23;20016;-83
2023/01/21 02:00:12;;;;;;;49.05;25.13;;;;;;;;;;6232316;23;20047;-84
2023/01/21 02:02:39;;;;;;;51.85;25.83;;;;;;;;;;6233672;23;20043;-84
2023/01/21 02:05:07;;;;;;;50.85;24.73;;;;;;;;;;6198272;23;20015;-84
2023/01/21 02:07:38;;;;;;;53.08;23.90;;;;;;;;;;6215486;23;20044;-83
2023/01/21 02:10:14;;;;;;;54.15;25.65;;;;;;;;;;6190283;23;20024;-83
2023/01/21 02:12:41;;;;;;;49.35;25.90;;;;;;;;;;6192139;23;20021;-82
2023/01/21 02:15:08;;;;;;;56.35;25.23;;;;;;;;;;6223487;23;20004;-84
2023/01/21 02:17:53;;;;;;;53.47;26.00;;;;;;;;;;6246056;23;20024;-83
2023/01/21 02:20:19;;;;;;;57.20;26.25;;;;;;;;;;6244122;23;20031;-83
2023/01/21 02:22:52;;;;;;;56.88;25.77;;;;;;;;;;6240413;23;20008;-84
2023/01/21 02:25:41;;;;;;;61.43;26.90;;;;;;;;;;6238539;23;20028;-85
2023/01/21 02:28:29;;;;;;;59.30;26.58;;;;;;;;;;6194289;23;20024;-84
2023/01/21 02:31:14;;;;;;;53.17;26.63;;;;;;;;;;6215884;23;20088;-83
2023/01/21 02:33:59;;;;;;;57.60;27.30;;;;;;;;;;6215428;23;20008;-84
2023/01/21 02:36:31;;;;;;;73.25;28.88;;;;;;;;;;6214951;23;20017;-85
2023/01/21 02:38:58;;;;;;;69.13;27.67;;;;;;;;;;6215446;23;20095;-85
2023/01/21 02:41:43;;;;;;;63.45;28.35;;;;;;;;;;6213730;23;20031;-84
2023/01/21 02:44:31;;;;;;;61.00;28.60;;;;;;;;;;6214299;23;20020;-85
2023/01/21 02:47:17;;;;;;;57.92;27.25;;;;;;;;;;6200407;23;20500;-85
2023/01/21 02:49:51;;;;;;;74.10;30.08;;;;;;;;;;6211291;23;20126;-84
2023/01/21 02:52:17;;;;;;;;;;;;;;;;;;6215414;23;20501;-85
2023/01/21 02:54:51;;;;;;;58.55;25.85;;;;;;;;;;6213480;23;19916;-85
2023/01/21 02:57:21;;;;;;;61.38;26.02;;;;;;;;;;6188785;23;20020;-84
2023/01/21 02:59:50;;;;;;;63.90;27.00;;;;;;;;;;6212814;23;20761;-85
2023/01/21 03:02:28;;;;;;;67.72;28.02;;;;;;;;;;6212707;23;20020;-85
2023/01/21 03:04:57;;;;;;;65.32;27.58;;;;;;;;;;6213565;23;20019;-85
2023/01/21 03:07:33;;;;;;;64.10;27.10;;;;;;;;;;6214980;23;20463;-85
2023/01/21 03:10:03;;;;;;;67.65;27.90;;;;;;;;;;6188195;23;20062;-84
2023/01/21 03:12:35;;;;;;;69.88;29.35;;;;;;;;;;6188454;23;20029;-85
2023/01/21 03:18:12;;;;;;;64.18;27.13;;;;;;;;;;6216327;23;20016;-84
2023/01/21 03:20:41;;;;;;;69.65;25.70;;;;;;;;;;6191306;23;20008;-85
2023/01/21 03:23:10;;;;;;;64.45;26.55;;;;;;;;;;6218560;23;20028;-83
2023/01/21 03:25:36;;;;;;;61.92;26.63;;;;;;;;;;6228619;23;20016;-85
2023/01/21 03:28:04;;;;;;;64.50;27.52;;;;;;;;;;6234367;23;20009;-83
2023/01/21 03:30:31;;;;;;;60.58;25.75;;;;;;;;;;6232003;23;20327;-83
2023/01/21 03:32:58;;;;;;;60.55;27.17;;;;;;;;;;6232746;23;20016;-84
2023/01/21 03:35:36;;;;;;;59.75;27.05;;;;;;;;;;6223902;23;20024;-84
2023/01/21 03:38:05;;;;;;;56.55;25.60;;;;;;;;;;6221338;23;20087;-84
2023/01/21 03:40:34;;;;;;;61.30;27.67;;;;;;;;;;6195844;23;20055;-84
2023/01/21 03:43:01;;;;;;;58.97;25.58;;;;;;;;;;6218853;23;20446;-84
2023/01/21 03:45:30;;;;;;;62.47;27.23;;;;;;;;;;6193148;23;20021;-84
2023/01/21 03:47:59;;;;;;;57.50;27.67;;;;;;;;;;6224572;23;20031;-83
2023/01/21 03:50:34;;;;;;;65.75;26.92;;;;;;;;;;6230434;23;20076;-84
2023/01/21 03:53:01;;;;;;;66.25;27.30;;;;;;;;;;6201173;23;20007;-84
2023/01/21 03:55:30;;;;;;;62.55;28.50;;;;;;;;;;6211779;23;20021;-85
2023/01/21 03:57:56;;;;;;;69.63;27.15;;;;;;;;;;6213386;23;20009;-86
2023/01/21 04:00:22;;;;;;;61.92;26.38;;;;;;;;;;6186361;23;20040;-85
2023/01/21 04:02:48;;;;;;;61.95;28.23;;;;;;;;;;6188015;23;20019;-85
2023/01/21 04:05:14;;;;;;;63.08;26.85;;;;;;;;;;6214596;23;20083;-85
2023/01/21 04:07:40;;;;;;;64.05;28.52;;;;;;;;;;6215176;23;20091;-85
2023/01/21 04:10:07;;;;;;;61.30;26.55;;;;;;;;;;6220394;23;20014;-85
2023/01/21 04:12:33;;;;;;;58.33;27.25;;;;;;;;;;6240648;23;20040;-85
2023/01/21 04:14:59;;;;;;;62.70;25.92;;;;;;;;;;6238808;23;20024;-85
2023/01/21 04:17:27;;;;;;;59.88;26.98;;;;;;;;;;6238147;23;20034;-85
2023/01/21 04:19:53;;;;;;;57.90;26.42;;;;;;;;;;6240274;23;20036;-86
2023/01/21 04:22:19;;;;;;;60.08;27.52;;;;;;;;;;6218800;23;20020;-85
2023/01/21 04:24:46;;;;;;;60.97;27.67;;;;;;;;;;6242735;23;20074;-85
2023/01/21 04:27:12;;;;;;;58.20;27.42;;;;;;;;;;6214743;23;20600;-86
2023/01/21 04:29:38;;;;;;;54.92;24.25;;;;;;;;;;6214347;23;20023;-86
2023/01/21 04:32:04;;;;;;;68.93;28.55;;;;;;;;;;6212964;23;20016;-86
2023/01/21 04:34:30;;;;;;;63.03;28.40;;;;;;;;;;6185806;23;20803;-85
2023/01/21 04:36:56;;;;;;;64.43;28.92;;;;;;;;;;6208677;23;20242;-84
2023/01/21 04:39:22;;;;;;;61.38;28.00;;;;;;;;;;6209493;23;20023;-86
2023/01/21 04:41:48;;;;;;;64.13;29.30;;;;;;;;;;6211756;23;20115;-86
2023/01/21 04:44:14;;;;;;;66.25;29.20;;;;;;;;;;6163693;23;20072;-87
2023/01/21 04:46:40;;;;;;;64.75;29.50;;;;;;;;;;6186829;23;20016;-84
2023/01/21 04:49:06;;;;;;;64.13;29.58;;;;;;;;;;6238958;23;20020;-85
2023/01/21 04:51:33;;;;;;;68.03;31.45;;;;;;;;;;6213184;23;20023;-85
2023/01/21 04:53:59;;;;;;;67.38;29.27;;;;;;;;;;6187113;23;20393;-85
2023/01/21 04:56:25;;;;;;;66.38;31.35;;;;;;;;;;6188479;23;20024;-86
2023/01/21 04:58:51;;;;;;;65.47;28.73;;;;;;;;;;6212537;23;20016;-86
2023/01/21 05:01:17;;;;;;;63.53;29.75;;;;;;;;;;6211427;23;20016;-86
2023/01/21 05:03:43;;;;;;;63.20;28.48;;;;;;;;;;6184953;23;20450;-88
2023/01/21 05:06:09;;;;;;;68.43;29.25;;;;;;;;;;6211362;23;20031;-87
2023/01/21 05:08:35;;;;;;;65.72;29.55;;;;;;;;;;6211445;23;20019;-87
2023/01/21 05:11:01;;;;;;;61.17;28.83;;;;;;;;;;6190273;23;20020;-86
2023/01/21 05:13:27;;;;;;;56.15;27.65;;;;;;;;;;6214159;23;20450;-87
2023/01/21 05:15:53;;;;;;;64.47;29.35;;;;;;;;;;6214102;23;20086;-87
2023/01/21 05:18:19;;;;;;;64.68;29.83;;;;;;;;;;6241293;23;20087;-87
2023/01/21 05:20:45;;;;;;;66.10;30.00;;;;;;;;;;6194087;23;20083;-87
2023/01/21 05:23:11;;;;;;;59.00;27.35;;;;;;;;;;6205074;23;20023;-87
2023/01/21 05:25:38;;;;;;;66.85;29.00;;;;;;;;;;6232023;23;20016;-87
2023/01/21 05:28:04;;;;;;;66.60;29.27;;;;;;;;;;6212182;23;20000;-86
2023/01/21 05:30:30;;;;;;;64.10;28.95;;;;;;;;;;6215416;23;20031;-87
2023/01/21 05:32:56;;;;;;;65.40;30.67;;;;;;;;;;6220117;23;20016;-87
2023/01/21 05:35:23;;;;;;;68.20;30.25;;;;;;;;;;6194462;23;20020;-86
2023/01/21 05:37:49;;;;;;;65.05;28.15;;;;;;;;;;6222354;23;20016;-85
2023/01/21 05:40:16;;;;;;;61.22;28.45;;;;;;;;;;6221337;23;20011;-85
2023/01/21 05:42:42;;;;;;;63.42;28.65;;;;;;;;;;6189098;23;20015;-88
2023/01/21 05:45:10;;;;;;;61.92;27.83;;;;;;;;;;6214291;23;20015;-87
2023/01/21 05:47:36;;;;;;;61.47;26.40;;;;;;;;;;6241787;23;20008;-88
2023/01/21 05:50:03;;;;;;;59.08;27.77;;;;;;;;;;6215585;23;20016;-87
2023/01/21 05:52:29;;;;;;;58.03;27.60;;;;;;;;;;6194842;23;20020;-86
2023/01/21 05:54:55;;;;;;;60.08;28.73;;;;;;;;;;6270095;22;20000;-87
2023/01/21 05:57:21;;;;;;;61.58;29.08;;;;;;;;;;6243701;22;20016;-88
2023/01/21 05:59:47;;;;;;;65.45;28.85;;;;;;;;;;6211189;23;20033;-87
2023/01/21 06:02:13;;;;;;;65.95;28.92;;;;;;;;;;6183300;23;20064;-87
2023/01/21 06:04:39;;;;;;;58.35;27.90;;;;;;;;;;6168142;23;20023;-87
2023/01/21 06:07:05;;;;;;;65.75;29.55;;;;;;;;;;6213007;23;20741;-87
2023/01/21 06:09:31;;;;;;;61.00;28.27;;;;;;;;;;6211991;23;20538;-87
2023/01/21 06:11:57;;;;;;;59.72;28.15;;;;;;;;;;6187079;23;20083;-88
2023/01/21 06:14:23;;;;;;;64.97;28.88;;;;;;;;;;6187681;22;20020;-87
2023/01/21 06:16:49;;;;;;;64.18;29.83;;;;;;;;;;6211504;23;20012;-88
2023/01/21 06:19:16;;;;;;;69.07;29.50;;;;;;;;;;6187584;23;20101;-88
2023/01/21 06:21:42;;;;;;;63.53;29.08;;;;;;;;;;6211533;23;20091;-88
2023/01/21 06:24:08;;;;;;;61.13;29.05;;;;;;;;;;6187575;23;20016;-89
2023/01/21 06:26:34;;;;;;;64.45;29.88;;;;;;;;;;6186149;23;20024;-89
2023/01/21 06:29:00;;;;;;;60.72;27.08;;;;;;;;;;6162746;23;20653;-88
2023/01/21 06:31:26;;;;;;;57.88;26.98;;;;;;;;;;6187501;23;20016;-88
2023/01/21 06:33:52;;;;;;;61.30;28.63;;;;;;;;;;6212783;23;20016;-87
2023/01/21 06:36:19;;;;;;;63.65;29.25;;;;;;;;;;6161728;23;20465;-87
2023/01/21 06:38:45;;;;;;;58.97;27.63;;;;;;;;;;6211359;23;20073;-86
2023/01/21 06:41:11;;;;;;;68.68;29.33;;;;;;;;;;6188135;23;20008;-87
2023/01/21 06:43:37;;;;;;;66.47;30.00;;;;;;;;;;6213103;23;20016;-86
2023/01/21 06:46:03;;;;;;;54.22;27.25;;;;;;;;;;6212073;23;20091;-85
2023/01/21 06:48:30;;;;;;;62.53;27.25;;;;;;;;;;6164529;23;20091;-88
2023/01/21 06:50:59;;;;;;;60.80;28.23;;;;;;;;;;6189428;23;20016;-88
2023/01/21 06:53:25;;;;;;;54.83;26.25;;;;;;;;;;6190501;23;20035;-87
2023/01/21 06:55:52;;;;;;;60.70;28.27;;;;;;;;;;6247639;23;20138;-88
2023/01/21 06:58:18;;;;;;;60.90;27.70;;;;;;;;;;6235413;23;20019;-88
2023/01/21 07:00:44;;;;;;;58.33;27.95;;;;;;;;;;6258231;23;20070;-85
2023/01/21 07:03:10;;;;;;;62.05;27.98;;;;;;;;;;6233284;23;20358;-88
2023/01/21 07:05:37;;;;;;;59.55;27.13;;;;;;;;;;6231576;23;20024;-88
2023/01/21 07:08:04;;;;;;;57.97;26.85;;;;;;;;;;6168487;23;20024;-87
2023/01/21 07:10:30;;;;;;;64.50;29.60;;;;;;;;;;6188899;23;20016;-86
2023/01/21 07:12:56;;;;;;;58.17;27.65;;;;;;;;;;6188754;23;20414;-88
2023/01/21 07:15:22;;;;;;;66.05;30.20;;;;;;;;;;6188464;23;20012;-86
2023/01/21 07:17:48;;;;;;;66.43;31.30;;;;;;;;;;6240986;23;20735;-87
2023/01/21 07:20:15;;;;;;;65.07;29.73;;;;;;;;;;6214184;23;20024;-90
2023/01/21 07:22:41;;;;;;;65.38;30.08;;;;;;;;;;6165373;23;20020;-86
2023/01/21 07:25:13;;;;;;;62.35;30.00;;;;;;;;;;6193383;23;20039;-87
2023/01/21 07:27:40;;;;;;;66.22;30.95;;;;;;;;;;6196279;23;20342;-86
2023/01/21 07:30:07;;;;;;;71.85;31.50;;;;;;;;;;6224147;23;20012;-87
2023/01/21 07:32:33;;;;;;;67.22;31.33;;;;;;;;;;6229772;23;20012;-87
2023/01/21 07:34:59;;;;;;;66.68;31.23;;;;;;;;;;6259521;23;20026;-87
2023/01/21 07:37:25;;;;;;;62.95;29.27;;;;;;;;;;6209067;23;20012;-87
2023/01/21 07:39:51;;;;;;;72.93;32.30;;;;;;;;;;6212976;22;20000;-86
2023/01/21 07:42:17;;;;;;;65.43;30.38;;;;;;;;;;6272856;22;20023;-86
2023/01/21 07:44:43;;;;;;;63.33;31.67;;;;;;;;;;6235281;23;20048;-85
2023/01/21 07:47:09;;;;;;;70.07;32.08;;;;;;;;;;6180442;23;20020;-87
2023/01/21 07:49:36;;;;;;;65.32;32.50;;;;;;;;;;6223084;23;20012;-86
2023/01/21 07:52:02;;;;;;;64.63;31.13;;;;;;;;;;6190047;23;20043;-87
2023/01/21 07:54:28;;;;;;;75.50;32.08;;;;;;;;;;6190098;23;20012;-87
2023/01/21 07:56:55;;;;;;;71.78;32.75;;;;;;;;;;6191387;23;20012;-87
2023/01/21 07:59:21;;;;;;;69.18;31.55;;;;;;;;;;6216772;23;20012;-88
2023/01/21 08:01:47;;;;;;;69.07;32.70;;;;;;;;;;6215455;23;20019;-87
2023/01/21 08:04:13;;;;;;;80.65;34.60;;;;;;;;;;6216408;23;20451;-88
2023/01/21 08:06:42;;;;;;;73.22;33.45;;;;;;;;;;6214872;23;20202;-88
2023/01/21 08:09:09;;;;;;;72.75;33.75;;;;;;;;;;6212186;23;20055;-88
2023/01/21 08:11:35;;;;;;;68.40;33.13;;;;;;;;;;6213099;23;20055;-88
2023/01/21 08:14:01;;;;;;;66.60;32.33;;;;;;;;;;6213096;22;20020;-88
2023/01/21 08:16:27;;;;;;;81.18;37.35;;;;;;;;;;6212771;23;20016;-87
2023/01/21 08:18:54;;;;;;;81.05;36.88;;;;;;;;;;6213180;23;20016;-88
2023/01/21 08:21:20;;;;;;;73.20;35.92;;;;;;;;;;6213066;23;20093;-87
2023/01/21 08:23:46;;;;;;;75.65;35.50;;;;;;;;;;6239819;23;20065;-87
2023/01/21 08:26:12;;;;;;;72.07;34.05;;;;;;;;;;6213099;23;20043;-87
2023/01/21 08:28:38;;;;;;;77.05;34.97;;;;;;;;;;6165336;23;20016;-86
2023/01/21 08:31:06;;;;;;;72.13;34.13;;;;;;;;;;6196481;23;20062;-86
2023/01/21 08:33:32;;;;;;;72.10;32.80;;;;;;;;;;6215913;23;20122;-76
2023/01/21 08:36:02;;;;;;;66.13;32.28;;;;;;;;;;6219777;23;20016;-76
2023/01/21 08:38:28;;;;;;;73.75;33.38;;;;;;;;;;6169598;23;20027;-76
2023/01/21 08:40:56;;;;;;;68.43;33.20;;;;;;;;;;6181318;23;20008;-77
2023/01/21 08:43:24;;;;;;;68.35;33.30;;;;;;;;;;6202079;23;20016;-76
2023/01/21 08:45:50;;;;;;;71.43;34.28;;;;;;;;;;6201466;23;20020;-76
2023/01/21 08:48:16;;;;;;;70.95;33.67;;;;;;;;;;6152534;23;20023;-76
2023/01/21 08:50:42;;;;;;;71.35;32.88;;;;;;;;;;6176286;23;20020;-77
2023/01/21 08:53:10;;;;;;;66.47;32.47;;;;;;;;;;6226096;23;20409;-77
2023/01/21 08:55:37;;;;;;;77.75;34.20;;;;;;;;;;6200740;23;20019;-75
2023/01/21 08:58:03;;;;;;;72.07;34.13;;;;;;;;;;6200295;23;20023;-76
2023/01/21 09:00:29;;;;;;;70.55;33.00;;;;;;;;;;6200592;23;20346;-76
2023/01/21 09:02:55;;;;;;;76.07;34.28;;;;;;;;;;6176103;23;20035;-76
2023/01/21 09:05:21;;;;;;;72.40;34.50;;;;;;;;;;6177858;23;20026;-75
2023/01/21 09:07:47;;;;;;;66.95;32.10;;;;;;;;;;6203810;23;20429;-77
2023/01/21 09:10:59;;;;;;;68.30;34.15;;;;;;;;;;6229088;23;20016;-75
2023/01/21 09:13:06;;;;;;;67.65;31.88;;;;;;;;;;6206796;23;20230;-76
2023/01/21 09:15:39;;;;;;;65.60;33.05;;;;;;;;;;6244740;22;20012;-76
2023/01/21 09:18:05;;;;;;;74.95;36.22;;;;;;;;;;6244240;23;20008;-75
2023/01/21 09:20:32;;;;;;;73.10;32.22;;;;;;;;;;6226995;23;20024;-76
2023/01/21 09:22:58;;;;;;;63.55;30.15;;;;;;;;;;6254287;22;20020;-86
2023/01/21 09:25:24;;;;;;;80.88;33.45;;;;;;;;;;6217921;23;20032;-86
2023/01/21 09:27:51;;;;;;;65.45;32.08;;;;;;;;;;6211735;23;20024;-86
2023/01/21 09:30:17;;;;;;;70.70;32.72;;;;;;;;;;6212315;23;20016;-86
2023/01/21 09:32:43;;;;;;;68.28;32.03;;;;;;;;;;6189698;23;20696;-86
2023/01/21 09:35:09;;;;;;;73.43;34.58;;;;;;;;;;6194196;23;20013;-86
2023/01/21 09:37:36;;;;;;;67.93;32.03;;;;;;;;;;6196791;23;20437;-85
2023/01/21 09:40:02;;;;;;;64.20;32.00;;;;;;;;;;6220096;23;20146;-85
2023/01/21 09:42:30;;;;;;;70.00;31.80;;;;;;;;;;6224686;23;20027;-85
2023/01/21 09:44:57;;;;;;;63.97;30.02;;;;;;;;;;6225539;23;20257;-85
2023/01/21 09:47:25;;;;;;;60.38;29.75;;;;;;;;;;6220996;23;20047;-85
2023/01/21 09:50:13;;;;;;;56.65;28.83;;;;;;;;;;6210055;23;20091;-85
2023/01/21 09:52:39;;;;;;;50.38;25.65;;;;;;;;;;6184451;23;20055;-84
2023/01/21 09:55:10;;;;;;;55.72;28.00;;;;;;;;;;6208849;23;20401;-85
2023/01/21 09:57:39;;;;;;;39.70;23.50;;;;;;;;;;6210347;23;20027;-84
2023/01/21 10:00:21;;;;;;;47.60;24.75;;;;;;;;;;6212708;23;20111;-84
2023/01/21 10:02:50;;;;;;;38.97;22.95;;;;;;;;;;6215622;23;20019;-85
2023/01/21 10:05:23;;;;;;;40.90;24.10;;;;;;;;;;6198001;23;20042;-85
2023/01/21 10:07:55;;;;;;;41.08;24.92;;;;;;;;;;6223998;23;20103;-86
2023/01/21 10:10:24;;;;;;;38.35;22.35;;;;;;;;;;6255344;23;20050;-78
2023/01/21 10:13:09;;;;;;;34.65;20.95;;;;;;;;;;6217333;23;20094;-79
2023/01/21 10:15:38;;;;;;;25.95;16.48;;;;;;;;;;6234207;22;20012;-86
2023/01/21 10:18:07;;;;;;;30.88;17.67;;;;;;;;;;6210643;23;20016;-85
2023/01/21 10:20:38;;;;;;;26.58;17.13;;;;;;;;;;6210382;23;20298;-87
2023/01/21 10:23:07;;;;;;;25.80;16.25;;;;;;;;;;6211347;23;20470;-86
2023/01/21 10:25:35;;;;;;;21.50;15.02;;;;;;;;;;6211164;23;20621;-86
2023/01/21 10:28:04;;;;;;;25.80;15.93;;;;;;;;;;6211289;23;20028;-86
2023/01/21 10:30:33;;;;;;;23.50;14.38;;;;;;;;;;6211207;23;20337;-86
2023/01/21 10:33:00;;;;;;;20.25;14.18;;;;;;;;;;6185703;23;20016;-86
2023/01/21 10:35:46;;;;;;;20.52;14.02;;;;;;;;;;6211341;23;20048;-84
2023/01/21 10:38:12;;;;;;;22.55;14.25;;;;;;;;;;6187306;23;20066;-84
2023/01/21 10:41:00;;;;;;;20.38;13.73;;;;;;;;;;6214508;23;20363;-84
2023/01/21 10:43:35;;;;;;;18.52;13.15;;;;;;;;;;6190507;23;20012;-84
2023/01/21 10:46:07;;;;;;;19.73;11.93;;;;;;;;;;6214913;23;20064;-84
2023/01/21 10:48:40;;;;;;;19.05;12.88;;;;;;;;;;6190861;23;20165;-84
2023/01/21 10:51:26;;;;;;;16.88;11.07;;;;;;;;;;6215274;23;20015;-83
2023/01/21 10:53:56;;;;;;;17.23;11.35;;;;;;;;;;6214137;23;20070;-85
2023/01/21 10:56:22;;;;;;;14.27;10.73;;;;;;;;;;6193342;23;20674;-85
2023/01/21 10:58:53;;;;;;;14.70;11.20;;;;;;;;;;6263350;23;20016;-82
2023/01/21 11:01:27;;;;;;;14.18;10.10;;;;;;;;;;6231547;23;20019;-85
2023/01/21 11:03:55;;;;;;;17.80;10.73;;;;;;;;;;6234346;22;20011;-86
2023/01/21 11:06:23;;;;;;;18.52;11.80;;;;;;;;;;6233154;23;20027;-85
2023/01/21 11:08:51;;;;;;;15.43;11.40;;;;;;;;;;6243580;23;20027;-86
2023/01/21 11:11:25;;;;;;;15.75;11.43;;;;;;;;;;6243620;23;20023;-86
2023/01/21 11:13:51;;;;;;;17.52;11.52;;;;;;;;;;6219672;23;20023;-85
2023/01/21 11:16:31;;;;;;;17.23;11.27;;;;;;;;;;6212686;23;20600;-83
2023/01/21 11:18:57;;;;;;;15.88;11.68;;;;;;;;;;6212543;23;20027;-85
2023/01/21 11:21:24;;;;;;;16.52;11.77;;;;;;;;;;6213824;23;20091;-85
2023/01/21 11:23:57;;;;;;;14.70;10.55;;;;;;;;;;6213994;23;20401;-86
2023/01/21 11:26:27;;;;;;;14.65;11.30;;;;;;;;;;6212599;23;20099;-85
2023/01/21 11:29:13;;;;;;;13.80;10.38;;;;;;;;;;6212133;23;20012;-84
2023/01/21 11:31:40;;;;;;;14.27;10.57;;;;;;;;;;6211112;23;20023;-86
2023/01/21 11:34:12;;;;;;;12.95;9.98;;;;;;;;;;6239656;23;20053;-86
2023/01/21 11:36:52;;;;;;;17.20;9.98;;;;;;;;;;6214582;23;20012;-87
2023/01/21 11:39:22;;;;;;;15.35;10.10;;;;;;;;;;6244596;23;20020;-86
2023/01/21 11:41:52;;;;;;;17.70;11.02;;;;;;;;;;6247561;23;20453;-86
2023/01/21 11:44:19;;;;;;;13.18;10.13;;;;;;;;;;6249290;23;20043;-86
2023/01/21 11:46:45;;;;;;;14.00;10.10;;;;;;;;;;6228827;23;20030;-86
2023/01/21 11:49:15;;;;;;;11.40;8.77;;;;;;;;;;6223232;23;20034;-87
2023/01/21 11:51:42;;;;;;;12.35;9.18;;;;;;;;;;6239981;23;20030;-87
2023/01/21 11:54:08;;;;;;;11.70;8.57;;;;;;;;;;6212967;23;20016;-88
2023/01/21 11:56:35;;;;;;;9.75;7.53;;;;;;;;;;6184488;23;20011;-88
2023/01/21 11:59:01;;;;;;;12.35;7.13;;;;;;;;;;6183261;23;20695;-86
2023/01/21 12:01:29;;;;;;;11.23;7.55;;;;;;;;;;6210324;23;20012;-86
2023/01/21 12:03:58;;;;;;;14.75;7.60;;;;;;;;;;6209360;23;20558;-87
2023/01/21 12:06:29;;;;;;;7.68;6.43;;;;;;;;;;6209692;23;20020;-85
2023/01/21 12:08:57;;;;;;;7.93;6.95;;;;;;;;;;6236166;23;20031;-85
2023/01/21 12:11:24;;;;;;;6.80;6.10;;;;;;;;;;6235613;23;20470;-85
2023/01/21 12:14:23;;;;;;;9.30;5.97;;;;;;;;;;6209472;23;20024;-85
2023/01/21 12:17:04;;;;;;;9.48;6.95;;;;;;;;;;6102525;23;20027;-86
2023/01/21 12:19:49;;;;;;;8.45;6.32;;;;;;;;;;6208442;23;20457;-85
2023/01/21 12:22:30;;;;;;;15.57;8.65;;;;;;;;;;6202809;23;20063;-86
2023/01/21 12:24:56;;;;;;;8.52;6.82;;;;;;;;;;6203163;23;20016;-83
2023/01/21 12:27:33;;;;;;;10.07;6.65;;;;;;;;;;6177121;23;20104;-85
2023/01/21 12:30:17;;;;;;;7.75;5.88;;;;;;;;;;6203823;23;20727;-83
2023/01/21 12:32:49;;;;;;;6.05;5.43;;;;;;;;;;6205673;23;20059;-85
2023/01/21 12:35:19;;;;;;;6.72;5.68;;;;;;;;;;6205697;23;20316;-85
2023/01/21 12:37:48;;;;;;;7.05;5.28;;;;;;;;;;6212167;23;20023;-84
2023/01/21 12:40:20;;;;;;;6.20;5.07;;;;;;;;;;6232737;23;20050;-87
2023/01/21 12:42:50;;;;;;;5.00;4.50;;;;;;;;;;6237697;23;20017;-87
2023/01/21 12:45:18;;;;;;;5.45;4.60;;;;;;;;;;6227305;23;20009;-87
2023/01/21 12:47:50;;;;;;;4.45;4.05;;;;;;;;;;6229450;23;20008;-88
2023/01/21 12:50:22;;;;;;;5.18;4.05;;;;;;;;;;6211463;23;20025;-87
2023/01/21 12:52:56;;;;;;;5.40;4.10;;;;;;;;;;6179886;23;20020;-87
2023/01/21 12:55:26;;;;;;;5.63;4.55;;;;;;;;;;6205996;23;20012;-87
2023/01/21 12:57:55;;;;;;;5.55;4.60;;;;;;;;;;6208044;23;20118;-87
2023/01/21 13:00:26;;;;;;;5.43;4.70;;;;;;;;;;6203918;23;20027;-87
2023/01/21 13:02:58;;;;;;;5.75;5.13;;;;;;;;;;6206262;23;20072;-87
2023/01/21 13:05:43;;;;;;;6.50;5.55;;;;;;;;;;6206808;23;20023;-86
2023/01/21 13:08:28;;;;;;;6.88;5.55;;;;;;;;;;6210950;23;20067;-83
2023/01/21 13:10:59;;;;;;;6.15;5.40;;;;;;;;;;6207872;23;20024;-86
2023/01/21 13:13:28;;;;;;;6.68;4.90;;;;;;;;;;6213722;23;20043;-85
2023/01/21 13:15:58;;;;;;;6.28;5.68;;;;;;;;;;6217446;23;20152;-86
2023/01/21 13:18:44;;;;;;;6.03;5.32;;;;;;;;;;6214066;23;20016;-86
2023/01/21 13:21:16;;;;;;;7.18;5.78;;;;;;;;;;6214110;23;20328;-86
2023/01/21 13:23:45;;;;;;;8.20;6.72;;;;;;;;;;6211593;23;20050;-86
2023/01/21 13:26:12;;;;;;;7.50;5.97;;;;;;;;;;6202490;23;20095;-85
2023/01/21 13:28:40;;;;;;;9.05;5.80;;;;;;;;;;6204726;23;20016;-85
2023/01/21 13:31:25;;;;;;;6.57;5.70;;;;;;;;;;6204016;23;20317;-86
2023/01/21 13:34:15;;;;;;;6.32;5.32;;;;;;;;;;6203372;23;20020;-84
2023/01/21 13:36:56;;;;;;;6.95;6.18;;;;;;;;;;6161631;23;20766;-85
2023/01/21 13:39:40;;;;;;;6.88;5.65;;;;;;;;;;6205019;23;20021;-85
2023/01/21 13:42:15;;;;;;;8.95;5.88;;;;;;;;;;6207038;23;20650;-84
2023/01/21 13:44:50;;;;;;;8.45;6.00;;;;;;;;;;6208717;23;20024;-83
2023/01/21 13:47:34;;;;;;;7.53;5.57;;;;;;;;;;6208117;23;20021;-83
2023/01/21 13:50:06;;;;;;;8.45;6.32;;;;;;;;;;6204349;23;20017;-84
2023/01/21 13:53:00;;;;;;;6.10;5.30;;;;;;;;;;6205088;23;20324;-83
2023/01/21 13:55:29;;;;;;;8.50;6.30;;;;;;;;;;6177177;23;20028;-83
2023/01/21 13:58:01;;;;;;;7.72;5.95;;;;;;;;;;6202648;23;20738;-83
2023/01/21 14:00:38;;;;;;;7.30;6.18;;;;;;;;;;6201157;23;20016;-84
2023/01/21 14:03:14;;;;;;;6.97;6.05;;;;;;;;;;6201712;23;20081;-84
2023/01/21 14:05:45;;;;;;;6.60;5.90;;;;;;;;;;6203603;23;20021;-84
2023/01/21 14:08:16;;;;;;;7.07;6.07;;;;;;;;;;6201613;23;20052;-84
2023/01/21 14:10:52;;;;;;;7.95;5.65;;;;;;;;;;6203269;23;20024;-83
2023/01/21 14:13:30;;;;;;;6.72;5.30;;;;;;;;;;6205372;23;20020;-83
2023/01/21 14:16:03;;;;;;;7.38;6.03;;;;;;;;;;6202421;23;20039;-83
2023/01/21 14:18:29;;;;;;;8.80;5.85;;;;;;;;;;6205127;23;20031;-83
2023/01/21 14:21:11;;;;;;;7.30;6.22;;;;;;;;;;6208580;23;20027;-83
2023/01/21 14:23:37;;;;;;;7.53;6.18;;;;;;;;;;6220387;23;20083;-82
2023/01/21 14:26:22;;;;;;;7.38;6.18;;;;;;;;;;6211423;23;20016;-82
2023/01/21 14:28:51;;;;;;;9.55;6.35;;;;;;;;;;6232127;22;20019;-84
2023/01/21 14:31:23;;;;;;;7.53;6.03;;;;;;;;;;6261344;22;20072;-82
2023/01/21 14:33:53;;;;;;;8.40;6.03;;;;;;;;;;6233754;22;20039;-82
2023/01/21 14:36:30;;;;;;;8.00;5.72;;;;;;;;;;6213992;23;20035;-82
2023/01/21 14:39:01;;;;;;;6.80;5.85;;;;;;;;;;6209984;23;20085;-83